Time;durP1;ratioP1;P1;durP2;ratioP2;P2;SDS_P1;SDS_P2;PMS_P1;PMS_P2;Temp;Humidity;BMP_temperature;BMP_pressure;BME280_temperature;BME280_humidity;BME280_pressure;Samples;Min_cycle;Max_cycle;Signal;HPM_P1;HPM_P2
2021/10/22 00:00:04;;;;;;;9.63;1.43;;;8.00;99.90;;;;;;5043729;28;20203;-50
2021/10/22 00:02:31;;;;;;;7.77;1.47;;;8.10;99.90;;;;;;5042741;28;20217;-51
2021/10/22 00:04:58;;;;;;;6.77;1.60;;;8.20;99.90;;;;;;5045810;28;20249;-51
2021/10/22 00:07:25;;;;;;;5.60;1.77;;;7.90;99.90;;;;;;5043938;28;20624;-51
2021/10/22 00:09:51;;;;;;;8.00;1.70;;;7.80;99.90;;;;;;5045049;28;20291;-51
2021/10/22 00:12:18;;;;;;;5.07;1.37;;;7.50;99.90;;;;;;5043355;28;20229;-51
2021/10/22 00:14:45;;;;;;;6.23;1.43;;;7.30;99.90;;;;;;5041973;28;20295;-50
2021/10/22 00:17:12;;;;;;;6.10;1.60;;;7.30;99.90;;;;;;5044332;28;20203;-51
2021/10/22 00:19:39;;;;;;;3.37;1.53;;;7.20;99.90;;;;;;5044068;28;20238;-51
2021/10/22 00:22:06;;;;;;;9.33;2.30;;;7.30;99.90;;;;;;5043240;28;20208;-51
2021/10/22 00:24:33;;;;;;;7.23;1.77;;;7.30;99.90;;;;;;5043902;28;20189;-51
2021/10/22 00:27:00;;;;;;;9.57;1.57;;;7.20;99.90;;;;;;5044435;28;20204;-51
2021/10/22 00:29:27;;;;;;;5.37;1.50;;;7.30;99.90;;;;;;5043784;28;20204;-51
2021/10/22 00:31:54;;;;;;;6.17;1.57;;;7.20;99.90;;;;;;5042517;28;20627;-51
2021/10/22 00:34:21;;;;;;;8.63;1.30;;;7.20;99.90;;;;;;5043569;28;20235;-50
2021/10/22 00:36:48;;;;;;;8.93;1.67;;;7.10;99.90;;;;;;5042276;28;20575;-50
2021/10/22 00:39:14;;;;;;;8.03;1.63;;;7.10;99.90;;;;;;5041605;28;20221;-50
2021/10/22 00:41:42;;;;;;;5.03;1.60;;;7.20;99.90;;;;;;5038378;28;20353;-50
2021/10/22 00:44:09;;;;;;;10.10;1.70;;;7.10;99.90;;;;;;5045407;28;20202;-50
2021/10/22 00:46:38;;;;;;;7.60;1.70;;;7.10;99.90;;;;;;5046910;28;20616;-51
2021/10/22 00:49:09;;;;;;;5.33;1.30;;;7.20;99.90;;;;;;5046974;28;20202;-50
2021/10/22 00:51:37;;;;;;;9.07;2.07;;;7.10;99.90;;;;;;5041868;28;20229;-50
2021/10/22 00:54:06;;;;;;;6.97;1.53;;;7.00;99.90;;;;;;5047025;28;20257;-51
2021/10/22 00:56:34;;;;;;;6.50;1.40;;;7.00;99.90;;;;;;5045813;28;20207;-51
2021/10/22 00:59:03;;;;;;;5.80;1.63;;;7.00;99.90;;;;;;5037195;28;20747;-50
2021/10/22 01:01:30;;;;;;;5.93;1.90;;;7.10;99.90;;;;;;5039994;28;20280;-51
2021/10/22 01:03:57;;;;;;;7.70;1.60;;;7.10;99.90;;;;;;5046156;28;20202;-50
2021/10/22 01:06:24;;;;;;;3.37;1.97;;;7.30;99.90;;;;;;5038550;28;20201;-50
2021/10/22 01:08:52;;;;;;;2.93;1.30;;;7.10;99.90;;;;;;5047315;28;20196;-50
2021/10/22 01:11:19;;;;;;;6.63;1.70;;;7.10;99.90;;;;;;5041434;28;21002;-51
2021/10/22 01:13:46;;;;;;;8.00;1.90;;;7.20;99.90;;;;;;5045585;28;20198;-50
2021/10/22 01:16:13;;;;;;;6.60;1.77;;;7.20;99.90;;;;;;5043303;28;20236;-50
2021/10/22 01:18:40;;;;;;;7.63;2.33;;;7.10;99.90;;;;;;5048642;28;20205;-51
2021/10/22 01:21:07;;;;;;;6.43;1.70;;;7.20;99.90;;;;;;5043449;28;20196;-51
2021/10/22 01:23:34;;;;;;;5.33;1.60;;;7.20;99.90;;;;;;5043539;28;20250;-50
2021/10/22 01:26:01;;;;;;;7.40;1.37;;;7.40;99.90;;;;;;5042554;28;20235;-51
2021/10/22 01:28:29;;;;;;;8.03;1.77;;;7.30;99.90;;;;;;5046791;28;20535;-51
2021/10/22 01:30:56;;;;;;;5.27;1.70;;;7.30;99.90;;;;;;5057062;28;20204;-51
2021/10/22 01:33:24;;;;;;;5.40;1.70;;;7.40;99.90;;;;;;5043680;28;20250;-50
2021/10/22 01:35:51;;;;;;;8.70;2.20;;;7.30;99.90;;;;;;5043149;28;20211;-51
2021/10/22 01:38:21;;;;;;;7.27;1.93;;;7.30;99.90;;;;;;5044302;28;20620;-51
2021/10/22 01:40:49;;;;;;;6.17;2.00;;;7.20;99.90;;;;;;5042395;28;20681;-50
2021/10/22 01:43:16;;;;;;;6.40;1.60;;;7.00;99.90;;;;;;5035603;28;20303;-48
2021/10/22 01:45:43;;;;;;;8.27;1.70;;;6.90;99.90;;;;;;5043339;28;20584;-51
2021/10/22 01:48:10;;;;;;;7.87;2.00;;;6.90;99.90;;;;;;5045283;28;20206;-51
2021/10/22 01:50:37;;;;;;;7.60;1.97;;;6.90;99.90;;;;;;5041181;28;20220;-51
2021/10/22 01:53:04;;;;;;;11.07;2.37;;;6.80;99.90;;;;;;5040780;28;20352;-51
2021/10/22 01:55:31;;;;;;;7.57;1.87;;;6.80;99.90;;;;;;5045906;28;20725;-50
2021/10/22 01:57:58;;;;;;;4.50;1.77;;;7.00;99.90;;;;;;5044124;28;20670;-50
2021/10/22 02:00:25;;;;;;;5.13;1.77;;;7.10;99.90;;;;;;5042782;28;20614;-51
2021/10/22 02:02:52;;;;;;;10.80;2.30;;;7.10;99.90;;;;;;5036551;28;20211;-51
2021/10/22 02:05:19;;;;;;;9.53;1.80;;;7.00;99.90;;;;;;5042393;28;20267;-51
2021/10/22 02:07:46;;;;;;;6.57;2.00;;;7.00;99.90;;;;;;5045469;28;20737;-51
2021/10/22 02:10:13;;;;;;;7.80;1.87;;;7.00;99.90;;;;;;5037079;28;20676;-51
2021/10/22 02:12:40;;;;;;;4.53;2.33;;;6.90;99.90;;;;;;5041742;28;20206;-51
2021/10/22 02:15:07;;;;;;;8.20;3.20;;;7.10;99.90;;;;;;5040092;28;20245;-51
2021/10/22 02:17:35;;;;;;;6.97;2.17;;;7.10;99.90;;;;;;5042110;28;20287;-50
2021/10/22 02:20:06;;;;;;;5.07;2.20;;;7.10;99.90;;;;;;5037733;28;20616;-50
2021/10/22 02:22:33;;;;;;;8.47;2.37;;;6.90;99.90;;;;;;5042686;28;20660;-51
2021/10/22 02:25:00;;;;;;;9.33;2.53;;;6.80;99.90;;;;;;5043788;28;20210;-50
2021/10/22 02:27:28;;;;;;;6.50;2.37;;;6.90;99.90;;;;;;5043543;28;20753;-50
2021/10/22 02:30:15;;;;;;;7.80;2.63;;;6.80;99.90;;;;;;5044892;28;20575;-50
2021/10/22 02:32:41;;;;;;;7.30;2.10;;;6.80;99.90;;;;;;5036529;28;20532;-51
2021/10/22 02:35:08;;;;;;;4.90;2.07;;;6.90;99.90;;;;;;5035768;28;20806;-50
2021/10/22 02:37:35;;;;;;;9.77;2.60;;;6.80;99.90;;;;;;5042387;28;20241;-50
2021/10/22 02:40:03;;;;;;;7.60;2.40;;;6.90;99.90;;;;;;5043306;28;20311;-51
2021/10/22 02:42:30;;;;;;;14.23;2.97;;;7.00;99.90;;;;;;5043355;28;20252;-51
2021/10/22 02:44:56;;;;;;;6.60;2.00;;;6.90;99.90;;;;;;5046581;28;20211;-51
2021/10/22 02:47:23;;;;;;;6.40;2.77;;;6.90;99.90;;;;;;5038093;28;20203;-51
2021/10/22 02:49:50;;;;;;;7.77;2.70;;;6.90;99.90;;;;;;5038511;28;20189;-51
2021/10/22 02:52:17;;;;;;;8.67;2.63;;;7.00;99.90;;;;;;5043165;28;20619;-51
2021/10/22 02:54:44;;;;;;;7.33;2.97;;;6.90;99.90;;;;;;5041083;28;20639;-51
2021/10/22 02:57:12;;;;;;;7.37;2.73;;;6.90;99.90;;;;;;5041515;28;20723;-50
2021/10/22 02:59:39;;;;;;;9.87;3.33;;;6.90;99.90;;;;;;5040084;28;20571;-51
2021/10/22 03:02:06;;;;;;;8.77;2.73;;;6.80;99.90;;;;;;5034651;28;20236;-51
2021/10/22 03:04:33;;;;;;;11.83;2.97;;;6.80;99.90;;;;;;5041451;28;20763;-51
2021/10/22 03:06:59;;;;;;;9.07;3.07;;;6.80;99.90;;;;;;5044878;28;20284;-50
2021/10/22 03:09:26;;;;;;;10.93;2.83;;;6.80;99.90;;;;;;5042031;28;20610;-51
2021/10/22 03:11:53;;;;;;;8.13;3.00;;;6.80;99.90;;;;;;5043578;28;20632;-51
2021/10/22 03:14:20;;;;;;;6.50;2.43;;;6.80;99.90;;;;;;5043605;28;20237;-51
2021/10/22 03:16:47;;;;;;;10.90;2.73;;;6.90;99.90;;;;;;5042478;28;20289;-50
2021/10/22 03:19:14;;;;;;;8.13;3.03;;;6.90;99.90;;;;;;5047420;28;20196;-50
2021/10/22 03:21:42;;;;;;;7.73;2.87;;;7.10;99.90;;;;;;5042828;28;20233;-51
2021/10/22 03:24:09;;;;;;;14.80;3.27;;;7.10;99.90;;;;;;5043112;28;20272;-51
2021/10/22 03:26:36;;;;;;;9.63;2.90;;;6.90;99.90;;;;;;5040135;28;20270;-50
2021/10/22 03:29:03;;;;;;;5.30;3.10;;;6.70;99.90;;;;;;5043857;28;20300;-51
2021/10/22 03:31:32;;;;;;;7.33;3.83;;;6.70;99.90;;;;;;5045143;28;20663;-51
2021/10/22 03:33:59;;;;;;;8.30;3.30;;;6.60;99.90;;;;;;5044485;28;20203;-50
2021/10/22 03:36:26;;;;;;;7.93;2.40;;;6.80;99.90;;;;;;5044052;28;20226;-51
2021/10/22 03:38:53;;;;;;;8.97;2.93;;;6.80;99.90;;;;;;5045393;28;20206;-51
2021/10/22 03:41:20;;;;;;;6.40;2.60;;;6.70;99.90;;;;;;5045782;28;20323;-50
2021/10/22 03:43:47;;;;;;;7.97;3.10;;;6.70;99.90;;;;;;5039342;28;20340;-50
2021/10/22 03:46:14;;;;;;;12.03;2.80;;;6.70;99.90;;;;;;5045143;28;20277;-50
2021/10/22 03:48:41;;;;;;;6.83;3.13;;;6.70;99.90;;;;;;5045425;28;20496;-50
2021/10/22 03:51:08;;;;;;;4.97;3.30;;;6.80;99.90;;;;;;5043047;28;20680;-50
2021/10/22 03:53:35;;;;;;;5.67;2.43;;;6.70;99.90;;;;;;5044226;28;20209;-51
2021/10/22 03:56:02;;;;;;;6.87;2.63;;;6.80;99.90;;;;;;5043592;28;20652;-51
2021/10/22 03:58:28;;;;;;;10.77;2.70;;;6.80;99.90;;;;;;5046788;28;20297;-50
2021/10/22 04:00:56;;;;;;;12.00;2.40;;;6.70;99.90;;;;;;5044101;28;20220;-50
2021/10/22 04:03:23;;;;;;;4.97;2.20;;;6.70;99.90;;;;;;5044272;28;20267;-51
2021/10/22 04:05:52;;;;;;;9.50;2.50;;;6.80;99.90;;;;;;5042903;28;20320;-51
2021/10/22 04:08:19;;;;;;;7.30;2.40;;;6.80;99.90;;;;;;5041111;28;20200;-51
2021/10/22 04:10:46;;;;;;;6.37;2.70;;;6.80;99.90;;;;;;5041831;28;20196;-51
2021/10/22 04:13:13;;;;;;;10.27;2.50;;;6.90;99.90;;;;;;5043601;28;20206;-50
2021/10/22 04:15:41;;;;;;;5.30;2.07;;;6.90;99.90;;;;;;5043819;28;20216;-50
2021/10/22 04:18:09;;;;;;;9.77;2.60;;;6.90;99.90;;;;;;5039016;28;20211;-51
2021/10/22 04:20:36;;;;;;;5.33;2.40;;;6.90;99.90;;;;;;5046217;28;20246;-50
2021/10/22 04:23:08;;;;;;;8.93;2.30;;;7.00;99.90;;;;;;5044284;28;20224;-51
2021/10/22 04:25:35;;;;;;;7.13;2.47;;;7.10;99.90;;;;;;5047946;28;20265;-50
2021/10/22 04:28:03;;;;;;;9.10;2.53;;;6.90;99.90;;;;;;5047714;28;20209;-50
2021/10/22 04:30:30;;;;;;;8.70;2.50;;;7.00;99.90;;;;;;5046048;28;20722;-50
2021/10/22 04:32:57;;;;;;;7.03;2.10;;;7.00;99.90;;;;;;5046575;28;20216;-50
2021/10/22 04:35:24;;;;;;;7.60;2.73;;;7.00;99.90;;;;;;5048399;28;20257;-50
2021/10/22 04:43:07;;;;;;;9.77;2.43;;;7.00;99.90;;;;;;5046518;28;20304;-51
2021/10/22 04:45:36;;;;;;;8.37;2.70;;;7.00;99.90;;;;;;5045440;28;20193;-50
2021/10/22 04:48:06;;;;;;;9.03;2.50;;;7.00;99.90;;;;;;5048797;28;20202;-50
2021/10/22 04:50:39;;;;;;;11.80;2.83;;;6.90;99.90;;;;;;5038806;28;20235;-50
2021/10/22 04:53:08;;;;;;;9.43;2.57;;;6.90;99.90;;;;;;5047980;28;20213;-50
2021/10/22 04:55:35;;;;;;;10.13;2.90;;;7.00;99.90;;;;;;5037814;28;20206;-50
2021/10/22 04:58:01;;;;;;;8.93;2.70;;;7.00;99.90;;;;;;5044667;28;20292;-51
2021/10/22 05:00:48;;;;;;;9.03;2.50;;;7.10;99.90;;;;;;5043460;28;20247;-50
2021/10/22 05:03:16;;;;;;;6.13;2.60;;;7.20;99.90;;;;;;5047937;28;20689;-50
2021/10/22 05:05:42;;;;;;;6.40;2.60;;;7.10;99.90;;;;;;5047322;28;20236;-50
2021/10/22 05:08:09;;;;;;;5.87;2.20;;;7.10;99.90;;;;;;5042335;28;20270;-50
2021/10/22 05:10:36;;;;;;;4.63;2.63;;;7.10;99.90;;;;;;5044106;28;20204;-50
2021/10/22 05:13:03;;;;;;;7.13;2.80;;;7.10;99.90;;;;;;5045301;28;20230;-50
2021/10/22 05:15:30;;;;;;;11.00;2.43;;;7.10;99.90;;;;;;5043671;28;20252;-50
2021/10/22 05:17:56;;;;;;;6.17;2.40;;;7.10;99.90;;;;;;5046313;28;20201;-50
2021/10/22 05:20:23;;;;;;;6.17;2.57;;;6.90;99.90;;;;;;5041667;28;20297;-50
2021/10/22 05:22:50;;;;;;;8.47;3.30;;;6.80;99.90;;;;;;5047193;28;20697;-51
2021/10/22 05:25:17;;;;;;;11.30;3.37;;;6.90;99.90;;;;;;5046944;28;21455;-50
2021/10/22 05:27:44;;;;;;;7.60;2.70;;;6.80;99.90;;;;;;5043826;28;20283;-51
2021/10/22 05:30:12;;;;;;;9.67;3.23;;;6.70;99.90;;;;;;5045058;28;20257;-51
2021/10/22 05:32:39;;;;;;;10.07;3.50;;;6.70;99.90;;;;;;5046583;28;20214;-51
2021/10/22 05:35:06;;;;;;;9.27;3.17;;;6.70;99.90;;;;;;5046129;28;20217;-51
2021/10/22 05:37:33;;;;;;;7.27;2.47;;;6.70;99.90;;;;;;5041737;28;20629;-50
2021/10/22 05:40:00;;;;;;;7.63;2.87;;;6.80;99.90;;;;;;5043743;28;20244;-50
2021/10/22 05:42:27;;;;;;;11.00;3.30;;;6.70;99.90;;;;;;5047305;28;20202;-51
2021/10/22 05:44:53;;;;;;;8.33;3.07;;;6.80;99.90;;;;;;5047555;28;20203;-50
2021/10/22 05:47:20;;;;;;;7.07;3.17;;;6.80;99.90;;;;;;5044647;28;20540;-50
2021/10/22 05:49:47;;;;;;;8.90;2.90;;;6.80;99.90;;;;;;5048960;28;20194;-49
2021/10/22 05:52:16;;;;;;;7.70;2.70;;;6.80;99.90;;;;;;5042568;28;20196;-51
2021/10/22 05:54:44;;;;;;;10.70;2.67;;;7.00;99.90;;;;;;5048978;28;20211;-50
2021/10/22 05:57:11;;;;;;;10.40;2.80;;;7.00;99.90;;;;;;5040846;28;20195;-50
2021/10/22 05:59:37;;;;;;;8.70;3.00;;;6.90;99.90;;;;;;5046953;28;20229;-50
2021/10/22 06:02:11;;;;;;;9.33;3.33;;;6.90;99.90;;;;;;5039495;28;20751;-50
2021/10/22 06:04:38;;;;;;;13.13;3.33;;;6.90;99.90;;;;;;5045718;28;20270;-51
2021/10/22 06:07:05;;;;;;;7.70;3.20;;;6.80;99.90;;;;;;5041833;28;20301;-51
2021/10/22 06:09:32;;;;;;;5.53;2.97;;;6.80;99.90;;;;;;5039638;28;20708;-51
2021/10/22 06:11:59;;;;;;;6.90;2.97;;;6.80;99.90;;;;;;5041502;28;20204;-51
2021/10/22 06:14:26;;;;;;;10.20;3.27;;;6.80;99.90;;;;;;5045800;28;20194;-51
2021/10/22 06:16:53;;;;;;;9.80;3.30;;;6.80;99.90;;;;;;5037547;28;20203;-50
2021/10/22 06:19:27;;;;;;;8.33;2.70;;;6.90;99.90;;;;;;5042990;28;20224;-50
2021/10/22 06:24:34;;;;;;;7.37;3.20;;;6.80;99.90;;;;;;5036126;28;20295;-50
2021/10/22 06:27:01;;;;;;;8.40;2.67;;;6.90;99.90;;;;;;5036311;28;20264;-50
2021/10/22 06:29:29;;;;;;;6.37;2.77;;;6.90;99.90;;;;;;5038902;28;20252;-51
2021/10/22 06:31:56;;;;;;;5.83;2.60;;;7.00;99.90;;;;;;5036019;28;20242;-51
2021/10/22 06:34:25;;;;;;;9.97;2.57;;;7.00;99.90;;;;;;5033942;28;20310;-51
2021/10/22 06:36:52;;;;;;;12.57;2.77;;;7.00;99.90;;;;;;5034676;28;20241;-50
2021/10/22 06:39:19;;;;;;;6.67;2.23;;;7.00;99.90;;;;;;5034306;28;20302;-49
2021/10/22 06:41:45;;;;;;;11.30;3.13;;;7.00;99.90;;;;;;5040651;28;20245;-50
2021/10/22 06:44:14;;;;;;;8.17;2.60;;;7.10;99.90;;;;;;5040829;28;20307;-50
2021/10/22 06:46:41;;;;;;;9.30;2.40;;;7.10;99.90;;;;;;5042669;28;20289;-51
2021/10/22 06:49:08;;;;;;;8.07;3.33;;;7.10;99.90;;;;;;5046596;28;20240;-50
2021/10/22 06:51:35;;;;;;;9.43;3.17;;;7.10;99.90;;;;;;5039943;28;20489;-50
2021/10/22 06:54:02;;;;;;;9.57;2.80;;;7.20;99.90;;;;;;5043611;28;20246;-50
2021/10/22 06:56:29;;;;;;;10.07;2.43;;;7.20;99.90;;;;;;5042708;28;20208;-51
2021/10/22 06:58:56;;;;;;;14.80;3.13;;;7.30;99.90;;;;;;5040728;28;20266;-50
2021/10/22 07:01:23;;;;;;;10.40;2.57;;;7.30;99.90;;;;;;5046747;28;20244;-50
2021/10/22 07:03:50;;;;;;;6.47;2.70;;;7.40;99.90;;;;;;5047056;28;20232;-50
2021/10/22 07:09:03;;;;;;;8.60;2.57;;;7.40;99.90;;;;;;5041200;28;20187;-51
2021/10/22 07:11:31;;;;;;;9.07;2.60;;;7.50;99.90;;;;;;5038389;28;20199;-50
2021/10/22 07:13:59;;;;;;;7.20;2.57;;;7.50;99.90;;;;;;5047141;28;20618;-51
2021/10/22 07:16:30;;;;;;;8.97;2.70;;;7.60;99.90;;;;;;5044789;28;20212;-50
2021/10/22 07:18:57;;;;;;;6.87;2.60;;;7.60;99.90;;;;;;5046895;28;20192;-51
2021/10/22 07:21:24;;;;;;;11.53;3.47;;;7.50;99.90;;;;;;5043152;28;20197;-50
2021/10/22 07:23:51;;;;;;;9.40;3.17;;;7.60;99.90;;;;;;5046182;28;20208;-51
2021/10/22 07:26:20;;;;;;;6.63;2.70;;;7.70;99.90;;;;;;5042700;28;20606;-51
2021/10/22 07:28:48;;;;;;;9.77;2.60;;;7.70;99.90;;;;;;5044918;28;20198;-50
2021/10/22 07:31:15;;;;;;;14.30;3.00;;;7.70;99.90;;;;;;5046124;28;20243;-50
2021/10/22 07:33:43;;;;;;;10.43;2.83;;;7.80;99.90;;;;;;5044811;28;20197;-50
2021/10/22 07:36:12;;;;;;;10.40;3.07;;;7.80;99.90;;;;;;5033682;28;20200;-50
2021/10/22 07:38:43;;;;;;;8.83;2.40;;;7.80;99.90;;;;;;5035526;28;20212;-50
2021/10/22 07:41:13;;;;;;;5.87;2.93;;;7.90;99.90;;;;;;5038083;28;20216;-51
2021/10/22 07:43:40;;;;;;;6.70;2.67;;;7.90;99.90;;;;;;5040013;28;20522;-51
2021/10/22 07:46:07;;;;;;;6.90;2.90;;;7.90;99.90;;;;;;5033577;28;20313;-51
2021/10/22 07:48:34;;;;;;;6.13;2.83;;;8.00;99.90;;;;;;5036038;28;20251;-51
2021/10/22 07:51:02;;;;;;;10.17;2.63;;;8.10;99.90;;;;;;5035073;28;20283;-51
2021/10/22 07:53:29;;;;;;;6.83;2.70;;;8.10;99.90;;;;;;5039271;28;20263;-51
2021/10/22 07:56:00;;;;;;;5.40;1.90;;;8.10;99.90;;;;;;5040164;28;20230;-50
2021/10/22 07:58:27;;;;;;;9.53;3.40;;;8.10;99.90;;;;;;5035664;28;20727;-51
2021/10/22 08:00:56;;;;;;;6.43;2.43;;;8.20;99.90;;;;;;5039980;28;20202;-51
2021/10/22 08:03:23;;;;;;;7.50;2.30;;;8.30;99.90;;;;;;5038296;28;20588;-51
2021/10/22 08:05:50;;;;;;;14.73;3.13;;;8.50;99.90;;;;;;5035950;28;20719;-51
2021/10/22 08:08:17;;;;;;;5.67;2.37;;;8.50;99.90;;;;;;5042430;28;20198;-51
2021/10/22 08:10:44;;;;;;;8.40;2.47;;;8.50;99.90;;;;;;5037087;28;20235;-51
2021/10/22 08:13:11;;;;;;;8.53;2.23;;;8.60;99.90;;;;;;5040585;28;20227;-50
2021/10/22 08:15:42;;;;;;;5.57;2.40;;;8.70;99.90;;;;;;5037697;28;20215;-50
2021/10/22 08:18:10;;;;;;;7.23;2.37;;;8.60;99.90;;;;;;5041034;28;20729;-50
2021/10/22 08:20:48;;;;;;;6.33;2.20;;;8.60;99.90;;;;;;5037801;28;20217;-51
2021/10/22 08:23:17;;;;;;;4.97;2.30;;;8.70;99.90;;;;;;5038694;28;20203;-51
2021/10/22 08:25:46;;;;;;;9.13;2.67;;;8.70;99.90;;;;;;5042884;28;20193;-51
2021/10/22 08:28:12;;;;;;;8.03;2.33;;;8.70;99.90;;;;;;5042098;28;20625;-51
2021/10/22 08:30:40;;;;;;;8.30;2.60;;;8.70;99.90;;;;;;5045119;28;20200;-51
2021/10/22 08:33:10;;;;;;;4.87;2.40;;;8.80;99.90;;;;;;5035555;28;20225;-51
2021/10/22 08:35:37;;;;;;;9.40;2.13;;;8.90;99.90;;;;;;5034414;28;20286;-50
2021/10/22 08:38:06;;;;;;;4.57;2.03;;;8.90;99.90;;;;;;5040293;28;20912;-50
2021/10/22 08:40:33;;;;;;;6.03;2.17;;;8.90;99.90;;;;;;5044791;28;20260;-51
2021/10/22 08:43:00;;;;;;;10.67;2.80;;;9.00;99.90;;;;;;5044057;28;20195;-51
2021/10/22 08:45:28;;;;;;;7.50;2.37;;;9.10;99.90;;;;;;5041466;28;20644;-51
2021/10/22 08:47:55;;;;;;;8.70;2.20;;;9.10;99.90;;;;;;5045196;28;20206;-51
2021/10/22 08:50:22;;;;;;;7.20;2.30;;;9.30;99.90;;;;;;5041947;28;20682;-51
2021/10/22 08:52:50;;;;;;;7.90;3.73;;;9.30;99.90;;;;;;5041705;28;20226;-51
2021/10/22 08:55:19;;;;;;;8.50;2.77;;;9.40;99.90;;;;;;5026392;28;20208;-51
2021/10/22 08:57:48;;;;;;;9.17;2.33;;;9.90;99.90;;;;;;5038575;28;20227;-49
2021/10/22 09:00:18;;;;;;;11.80;2.30;;;10.00;99.90;;;;;;5042313;28;20309;-52
2021/10/22 09:02:47;;;;;;;9.00;2.27;;;9.90;99.90;;;;;;5040594;28;20658;-49
2021/10/22 09:05:20;;;;;;;8.47;1.80;;;9.90;99.90;;;;;;5039479;28;20234;-51
2021/10/22 09:07:54;;;;;;;9.90;2.03;;;9.90;99.90;;;;;;5043266;28;20249;-50
2021/10/22 09:10:24;;;;;;;6.10;2.07;;;9.80;99.90;;;;;;5044439;28;20627;-51
2021/10/22 09:12:57;;;;;;;4.50;1.63;;;9.80;99.90;;;;;;5044597;28;20204;-50
2021/10/22 09:15:28;;;;;;;5.20;1.60;;;9.80;99.90;;;;;;5046490;28;20234;-51
2021/10/22 09:17:57;;;;;;;6.13;1.60;;;9.80;99.90;;;;;;5046409;28;20229;-51
2021/10/22 09:20:26;;;;;;;5.13;1.63;;;9.90;99.90;;;;;;5042588;28;20219;-51
2021/10/22 09:22:58;;;;;;;5.50;1.43;;;9.90;99.90;;;;;;5045540;28;20276;-51
2021/10/22 09:25:27;;;;;;;6.37;1.70;;;9.90;99.90;;;;;;5043158;28;20712;-50
2021/10/22 09:28:03;;;;;;;5.30;1.60;;;10.00;99.90;;;;;;5039123;28;20248;-51
2021/10/22 09:30:36;;;;;;;9.73;2.17;;;10.00;99.90;;;;;;5042779;28;20223;-52
2021/10/22 09:33:23;;;;;;;4.20;1.10;;;10.00;99.90;;;;;;5041601;28;20201;-50
2021/10/22 09:35:53;;;;;;;8.87;2.10;;;10.00;99.90;;;;;;5040865;28;20708;-52
2021/10/22 09:38:22;;;;;;;9.40;1.57;;;10.10;99.90;;;;;;5043498;28;20679;-51
2021/10/22 09:40:51;;;;;;;7.50;1.90;;;10.10;99.90;;;;;;5039495;28;20221;-51
2021/10/22 09:43:22;;;;;;;3.30;1.50;;;10.20;99.90;;;;;;5040970;28;20201;-51
2021/10/22 09:46:05;;;;;;;6.90;1.60;;;10.20;99.90;;;;;;5040504;28;20565;-51
2021/10/22 09:48:32;;;;;;;3.53;1.20;;;10.20;99.90;;;;;;5043044;28;20205;-51
2021/10/22 09:51:20;;;;;;;4.77;1.17;;;10.20;99.90;;;;;;5046930;28;20741;-51
2021/10/22 09:53:47;;;;;;;7.07;1.27;;;10.10;99.90;;;;;;5037545;28;20735;-51
2021/10/22 09:56:23;;;;;;;5.00;1.23;;;10.30;99.90;;;;;;5033045;28;20572;-51
2021/10/22 09:59:02;;;;;;;5.63;1.57;;;10.40;91.40;;;;;;5039816;28;20655;-51
2021/10/22 10:01:44;;;;;;;4.03;1.37;;;10.50;63.00;;;;;;5035092;28;20651;-51
2021/10/22 10:04:13;;;;;;;4.27;1.23;;;10.50;84.30;;;;;;5032192;28;20218;-50
2021/10/22 10:07:02;;;;;;;3.67;1.10;;;10.50;90.10;;;;;;5035283;28;20639;-52
2021/10/22 10:09:29;;;;;;;3.30;1.10;;;10.50;99.90;;;;;;5041223;28;20522;-52
2021/10/22 10:12:00;;;;;;;4.60;1.40;;;10.40;99.90;;;;;;5041742;28;20237;-50
2021/10/22 10:14:31;;;;;;;8.10;1.37;;;10.30;99.90;;;;;;5041117;28;20208;-50
2021/10/22 10:17:00;;;;;;;4.23;1.50;;;10.30;99.90;;;;;;5038720;28;20681;-50
2021/10/22 10:19:44;;;;;;;4.77;1.30;;;10.20;99.90;;;;;;5037965;28;20303;-50
2021/10/22 10:22:13;;;;;;;6.23;1.50;;;10.20;99.90;;;;;;5040224;28;20298;-50
2021/10/22 10:24:55;;;;;;;3.43;1.50;;;10.10;99.90;;;;;;5039724;28;20226;-51
2021/10/22 10:27:26;;;;;;;2.43;1.13;;;10.10;99.90;;;;;;5039059;28;20657;-51
2021/10/22 10:30:00;;;;;;;4.00;1.50;;;10.10;99.90;;;;;;5035204;28;20252;-51
2021/10/22 10:32:29;;;;;;;1.77;0.90;;;10.00;99.90;;;;;;5039179;28;20266;-51
2021/10/22 10:35:01;;;;;;;5.13;1.50;;;10.00;99.90;;;;;;5041586;28;20206;-51
2021/10/22 10:37:35;;;;;;;8.90;1.60;;;9.90;99.90;;;;;;5033017;28;20224;-51
2021/10/22 10:40:26;;;;;;;6.00;1.43;;;10.00;99.90;;;;;;5038420;28;20642;-51
2021/10/22 10:42:58;;;;;;;8.37;1.50;;;10.00;99.90;;;;;;5042281;28;20687;-51
2021/10/22 10:45:25;;;;;;;4.93;1.40;;;10.10;99.90;;;;;;5035043;28;20317;-51
2021/10/22 10:47:58;;;;;;;6.50;1.43;;;10.10;99.90;;;;;;5040538;28;20302;-51
2021/10/22 10:50:40;;;;;;;4.93;1.47;;;10.00;99.90;;;;;;5042052;28;20195;-51
2021/10/22 10:53:16;;;;;;;8.57;1.37;;;10.00;99.90;;;;;;5040406;28;20199;-52
2021/10/22 10:55:45;;;;;;;5.37;1.40;;;10.00;99.90;;;;;;5038608;28;20292;-51
2021/10/22 10:58:19;;;;;;;6.57;1.60;;;10.10;99.90;;;;;;5044378;28;20622;-51
2021/10/22 11:00:55;;;;;;;13.37;2.00;;;10.10;99.90;;;;;;5043121;28;20310;-52
2021/10/22 11:03:46;;;;;;;4.73;1.50;;;10.20;99.90;;;;;;5039622;28;20710;-51
2021/10/22 11:06:34;;;;;;;7.13;1.60;;;10.20;99.90;;;;;;5032424;28;20293;-51
2021/10/22 11:09:03;;;;;;;5.10;1.03;;;10.30;99.90;;;;;;5044966;28;20201;-51
2021/10/22 11:11:35;;;;;;;4.50;1.33;;;10.30;99.90;;;;;;5038098;28;20194;-51
2021/10/22 11:14:02;;;;;;;6.93;1.70;;;10.70;99.90;;;;;;5041156;28;20259;-51
2021/10/22 11:16:45;;;;;;;6.00;1.70;;;10.90;99.90;;;;;;5044178;28;20311;-52
2021/10/22 11:19:14;;;;;;;6.90;1.17;;;11.30;99.90;;;;;;5043186;28;20204;-51
2021/10/22 11:21:46;;;;;;;6.63;1.23;;;11.60;99.90;;;;;;5041664;28;20325;-51
2021/10/22 11:24:19;;;;;;;7.67;1.80;;;11.90;99.90;;;;;;5038573;28;20914;-52
2021/10/22 11:26:58;;;;;;;9.57;1.63;;;12.30;99.90;;;;;;5039320;28;20201;-51
2021/10/22 11:29:25;;;;;;;4.47;1.30;;;12.60;99.90;;;;;;5044079;28;20715;-49
2021/10/22 11:32:14;;;;;;;7.77;1.43;;;12.90;99.90;;;;;;5037228;28;20819;-52
2021/10/22 11:35:03;;;;;;;5.37;1.43;;;12.80;99.90;;;;;;5045645;28;20231;-52
2021/10/22 11:37:34;;;;;;;6.63;1.40;;;12.90;99.90;;;;;;5036559;28;20307;-52
2021/10/22 11:40:06;;;;;;;6.10;1.47;;;12.90;99.90;;;;;;5043774;28;20233;-52
2021/10/22 11:42:35;;;;;;;4.77;1.27;;;13.10;99.90;;;;;;5039099;28;20286;-52
2021/10/22 11:45:11;;;;;;;3.73;1.10;;;13.20;99.90;;;;;;5045119;28;20640;-51
2021/10/22 11:47:43;;;;;;;4.37;1.53;;;13.10;99.90;;;;;;5041640;28;20630;-52
2021/10/22 11:50:25;;;;;;;4.70;1.03;;;13.00;99.90;;;;;;5039729;28;20750;-50
2021/10/22 11:52:54;;;;;;;6.10;1.40;;;12.80;99.90;;;;;;5037243;28;20538;-50
2021/10/22 11:55:23;;;;;;;8.33;1.20;;;12.70;99.90;;;;;;5038206;28;20204;-50
2021/10/22 11:57:51;;;;;;;7.67;1.73;;;12.80;99.90;;;;;;5034846;28;20203;-50
2021/10/22 12:00:18;;;;;;;3.83;1.73;;;13.30;99.90;;;;;;5039183;28;20655;-50
2021/10/22 12:02:45;;;;;;;10.67;1.70;;;13.20;99.90;;;;;;5035925;28;20209;-50
2021/10/22 12:05:12;;;;;;;7.03;1.27;;;12.90;99.90;;;;;;5038783;28;20664;-51
2021/10/22 12:07:50;;;;;;;2.47;0.73;;;12.70;12.00;;;;;;5043281;28;20367;-52
2021/10/22 12:10:18;;;;;;;4.70;0.97;;;12.60;96.60;;;;;;5035749;28;21253;-51
2021/10/22 12:12:50;;;;;;;7.13;1.73;;;12.70;99.90;;;;;;5038113;28;20626;-51
2021/10/22 12:15:29;;;;;;;8.03;1.57;;;12.60;99.90;;;;;;5043166;28;20815;-51
2021/10/22 12:18:01;;;;;;;7.83;1.60;;;12.50;99.90;;;;;;5045214;28;20298;-51
2021/10/22 12:20:29;;;;;;;5.93;1.30;;;12.50;99.90;;;;;;5046060;28;20682;-51
2021/10/22 12:22:59;;;;;;;4.77;1.27;;;12.40;99.90;;;;;;5045648;28;20202;-49
2021/10/22 12:25:28;;;;;;;7.07;1.50;;;12.40;99.90;;;;;;5032521;28;20216;-52
2021/10/22 12:27:57;;;;;;;4.40;1.13;;;12.30;99.90;;;;;;5044167;28;20241;-51
2021/10/22 12:30:29;;;;;;;8.03;1.50;;;12.40;99.90;;;;;;5042171;28;20249;-51
2021/10/22 12:33:10;;;;;;;7.90;1.73;;;12.40;99.90;;;;;;5047089;28;20260;-51
2021/10/22 12:35:53;;;;;;;5.93;1.50;;;12.30;99.90;;;;;;5046262;28;20661;-51
2021/10/22 12:38:28;;;;;;;9.50;1.50;;;12.20;99.90;;;;;;5034333;28;20318;-50
2021/10/22 12:40:56;;;;;;;5.37;1.47;;;12.10;99.90;;;;;;5047929;28;20264;-52
2021/10/22 12:43:30;;;;;;;8.77;1.40;;;11.90;99.90;;;;;;5049870;28;20290;-50
2021/10/22 12:46:04;;;;;;;4.60;1.20;;;11.80;99.90;;;;;;5043311;28;20658;-52
2021/10/22 12:48:32;;;;;;;4.87;1.30;;;11.70;99.90;;;;;;5045237;28;20316;-52
2021/10/22 12:51:04;;;;;;;9.17;2.87;;;11.70;99.90;;;;;;5046970;28;20546;-52
2021/10/22 12:53:34;;;;;;;6.73;1.33;;;11.80;99.90;;;;;;5041279;28;20211;-52
2021/10/22 12:56:06;;;;;;;10.07;1.83;;;11.70;99.90;;;;;;5045196;28;20374;-53
2021/10/22 12:58:34;;;;;;;6.03;1.53;;;12.00;99.90;;;;;;5047196;28;20600;-50
2021/10/22 13:01:16;;;;;;;4.87;1.40;;;12.70;99.90;;;;;;5043720;28;20325;-50
2021/10/22 13:03:48;;;;;;;9.93;1.60;;;12.70;99.90;;;;;;5043613;28;20250;-50
2021/10/22 13:06:30;;;;;;;6.30;1.50;;;12.50;99.90;;;;;;5046360;28;20334;-51
2021/10/22 13:22:23;;;;;;;6.27;2.00;;;11.90;99.90;;;;;;5038318;28;20262;-51
2021/10/22 13:24:54;;;;;;;5.07;1.50;;;11.90;99.90;;;;;;5037098;28;20641;-52
2021/10/22 13:27:22;;;;;;;13.07;1.93;;;12.30;99.90;;;;;;5040147;28;20229;-52